sensor_id;sensor_type;location;lat;lon;timestamp;temperature;humidity
28177;DHT22;15461;41.652;9.378;2023-08-06T00:00:09;22.60;99.90
28177;DHT22;15461;41.652;9.378;2023-08-06T00:02:35;22.70;99.90
28177;DHT22;15461;41.652;9.378;2023-08-06T00:05:01;22.70;99.90
28177;DHT22;15461;41.652;9.378;2023-08-06T00:07:27;22.60;99.90
28177;DHT22;15461;41.652;9.378;2023-08-06T00:09:52;22.70;99.90
28177;DHT22;15461;41.652;9.378;2023-08-06T00:12:18;22.70;99.90
28177;DHT22;15461;41.652;9.378;2023-08-06T00:14:44;22.60;99.90
28177;DHT22;15461;41.652;9.378;2023-08-06T00:17:10;22.60;99.90
28177;DHT22;15461;41.652;9.378;2023-08-06T00:19:36;22.60;99.90
28177;DHT22;15461;41.652;9.378;2023-08-06T00:22:02;22.50;99.90
28177;DHT22;15461;41.652;9.378;2023-08-06T00:24:28;22.50;99.90
28177;DHT22;15461;41.652;9.378;2023-08-06T00:26:53;22.50;99.90
28177;DHT22;15461;41.652;9.378;2023-08-06T00:29:19;22.50;99.90
28177;DHT22;15461;41.652;9.378;2023-08-06T00:31:45;22.50;99.90
28177;DHT22;15461;41.652;9.378;2023-08-06T00:34:11;22.50;99.90
28177;DHT22;15461;41.652;9.378;2023-08-06T00:36:37;22.50;99.90
28177;DHT22;15461;41.652;9.378;2023-08-06T00:39:03;22.50;99.90
28177;DHT22;15461;41.652;9.378;2023-08-06T00:41:28;22.50;99.90
28177;DHT22;15461;41.652;9.378;2023-08-06T00:43:54;22.40;99.90
28177;DHT22;15461;41.652;9.378;2023-08-06T00:46:20;22.40;99.90
28177;DHT22;15461;41.652;9.378;2023-08-06T00:48:46;22.40;99.90
28177;DHT22;15461;41.652;9.378;2023-08-06T00:51:12;22.40;99.90
28177;DHT22;15461;41.652;9.378;2023-08-06T00:53:39;22.40;99.90
28177;DHT22;15461;41.652;9.378;2023-08-06T00:56:06;22.40;99.90
28177;DHT22;15461;41.652;9.378;2023-08-06T00:58:33;22.30;99.90
28177;DHT22;15461;41.652;9.378;2023-08-06T01:00:59;22.40;99.90
28177;DHT22;15461;41.652;9.378;2023-08-06T01:03:25;22.40;99.90
28177;DHT22;15461;41.652;9.378;2023-08-06T01:05:51;22.30;99.90
28177;DHT22;15461;41.652;9.378;2023-08-06T01:08:56;22.30;99.90
28177;DHT22;15461;41.652;9.378;2023-08-06T01:11:33;22.40;99.90
28177;DHT22;15461;41.652;9.378;2023-08-06T01:14:12;22.50;99.90
28177;DHT22;15461;41.652;9.378;2023-08-06T01:16:41;22.50;99.90
28177;DHT22;15461;41.652;9.378;2023-08-06T01:19:16;22.50;99.90
28177;DHT22;15461;41.652;9.378;2023-08-06T01:21:42;22.50;99.90
28177;DHT22;15461;41.652;9.378;2023-08-06T01:24:08;22.40;99.90
28177;DHT22;15461;41.652;9.378;2023-08-06T01:26:41;22.40;99.90
28177;DHT22;15461;41.652;9.378;2023-08-06T01:31:44;22.40;99.90
28177;DHT22;15461;41.652;9.378;2023-08-06T01:34:29;22.40;99.90
28177;DHT22;15461;41.652;9.378;2023-08-06T01:36:57;22.40;99.90
28177;DHT22;15461;41.652;9.378;2023-08-06T01:39:23;22.40;99.90
28177;DHT22;15461;41.652;9.378;2023-08-06T01:41:49;22.50;99.90
28177;DHT22;15461;41.652;9.378;2023-08-06T01:44:15;22.50;99.90
28177;DHT22;15461;41.652;9.378;2023-08-06T01:46:41;22.40;99.90
28177;DHT22;15461;41.652;9.378;2023-08-06T01:49:07;22.30;99.90
28177;DHT22;15461;41.652;9.378;2023-08-06T01:51:33;22.20;99.90
28177;DHT22;15461;41.652;9.378;2023-08-06T01:53:59;22.30;99.90
28177;DHT22;15461;41.652;9.378;2023-08-06T01:56:25;22.30;99.90
28177;DHT22;15461;41.652;9.378;2023-08-06T01:58:51;22.30;99.90
28177;DHT22;15461;41.652;9.378;2023-08-06T02:01:17;22.20;99.90
28177;DHT22;15461;41.652;9.378;2023-08-06T02:03:42;22.20;99.90
28177;DHT22;15461;41.652;9.378;2023-08-06T02:06:10;22.30;99.90
28177;DHT22;15461;41.652;9.378;2023-08-06T02:08:35;22.40;99.90
28177;DHT22;15461;41.652;9.378;2023-08-06T02:11:01;22.40;99.90
28177;DHT22;15461;41.652;9.378;2023-08-06T02:13:30;22.40;99.90
28177;DHT22;15461;41.652;9.378;2023-08-06T02:15:55;22.40;99.90
28177;DHT22;15461;41.652;9.378;2023-08-06T02:18:21;22.40;99.90
28177;DHT22;15461;41.652;9.378;2023-08-06T02:20:57;22.40;99.90
28177;DHT22;15461;41.652;9.378;2023-08-06T02:23:24;22.50;99.90
28177;DHT22;15461;41.652;9.378;2023-08-06T02:26:01;22.50;99.90
28177;DHT22;15461;41.652;9.378;2023-08-06T02:28:28;22.60;99.90
28177;DHT22;15461;41.652;9.378;2023-08-06T02:30:54;22.60;99.90
28177;DHT22;15461;41.652;9.378;2023-08-06T02:33:19;22.50;99.90
28177;DHT22;15461;41.652;9.378;2023-08-06T02:35:45;22.60;99.90
28177;DHT22;15461;41.652;9.378;2023-08-06T02:38:11;22.70;99.90
28177;DHT22;15461;41.652;9.378;2023-08-06T02:40:43;22.60;99.90
28177;DHT22;15461;41.652;9.378;2023-08-06T02:43:10;22.60;99.90
28177;DHT22;15461;41.652;9.378;2023-08-06T02:45:36;22.60;99.90
28177;DHT22;15461;41.652;9.378;2023-08-06T02:48:02;22.60;99.90
28177;DHT22;15461;41.652;9.378;2023-08-06T02:50:28;22.60;99.90
28177;DHT22;15461;41.652;9.378;2023-08-06T02:52:54;22.50;99.90
28177;DHT22;15461;41.652;9.378;2023-08-06T02:55:20;22.50;99.90
28177;DHT22;15461;41.652;9.378;2023-08-06T02:57:48;22.40;99.90
28177;DHT22;15461;41.652;9.378;2023-08-06T03:00:14;22.40;99.90
28177;DHT22;15461;41.652;9.378;2023-08-06T03:02:41;22.50;99.90
28177;DHT22;15461;41.652;9.378;2023-08-06T03:05:29;22.50;99.90
28177;DHT22;15461;41.652;9.378;2023-08-06T03:07:55;22.50;99.90
28177;DHT22;15461;41.652;9.378;2023-08-06T03:10:25;22.60;99.90
28177;DHT22;15461;41.652;9.378;2023-08-06T03:12:53;22.60;99.90
28177;DHT22;15461;41.652;9.378;2023-08-06T03:15:20;22.60;99.90
28177;DHT22;15461;41.652;9.378;2023-08-06T03:17:47;22.50;99.90
28177;DHT22;15461;41.652;9.378;2023-08-06T03:20:14;22.50;99.90
28177;DHT22;15461;41.652;9.378;2023-08-06T03:22:40;22.40;99.90
28177;DHT22;15461;41.652;9.378;2023-08-06T03:25:06;22.40;99.90
28177;DHT22;15461;41.652;9.378;2023-08-06T03:27:33;22.40;99.90
28177;DHT22;15461;41.652;9.378;2023-08-06T03:30:00;22.40;99.90
28177;DHT22;15461;41.652;9.378;2023-08-06T03:32:26;22.50;99.90
28177;DHT22;15461;41.652;9.378;2023-08-06T03:34:54;22.60;99.90
28177;DHT22;15461;41.652;9.378;2023-08-06T03:37:21;22.60;99.90
28177;DHT22;15461;41.652;9.378;2023-08-06T03:39:49;22.60;99.90
28177;DHT22;15461;41.652;9.378;2023-08-06T03:42:15;22.60;99.90
28177;DHT22;15461;41.652;9.378;2023-08-06T03:44:41;22.60;99.90
28177;DHT22;15461;41.652;9.378;2023-08-06T03:47:08;22.50;99.90
28177;DHT22;15461;41.652;9.378;2023-08-06T03:49:34;22.50;99.90
28177;DHT22;15461;41.652;9.378;2023-08-06T03:52:00;22.60;99.90
28177;DHT22;15461;41.652;9.378;2023-08-06T03:54:26;22.60;99.90
28177;DHT22;15461;41.652;9.378;2023-08-06T03:56:51;22.50;99.90
28177;DHT22;15461;41.652;9.378;2023-08-06T03:59:17;22.40;99.90
28177;DHT22;15461;41.652;9.378;2023-08-06T04:01:44;22.30;99.90
28177;DHT22;15461;41.652;9.378;2023-08-06T04:04:10;22.30;99.90
28177;DHT22;15461;41.652;9.378;2023-08-06T04:06:36;22.20;99.90
28177;DHT22;15461;41.652;9.378;2023-08-06T04:09:02;22.40;99.90
28177;DHT22;15461;41.652;9.378;2023-08-06T04:11:28;22.40;99.90
28177;DHT22;15461;41.652;9.378;2023-08-06T04:13:54;22.30;99.90
28177;DHT22;15461;41.652;9.378;2023-08-06T04:16:21;22.30;99.90
28177;DHT22;15461;41.652;9.378;2023-08-06T04:18:47;22.30;99.90
28177;DHT22;15461;41.652;9.378;2023-08-06T04:21:13;22.30;99.90
28177;DHT22;15461;41.652;9.378;2023-08-06T04:23:39;22.20;99.90
28177;DHT22;15461;41.652;9.378;2023-08-06T04:26:07;22.20;99.90
28177;DHT22;15461;41.652;9.378;2023-08-06T04:28:35;22.20;99.90
28177;DHT22;15461;41.652;9.378;2023-08-06T04:31:01;22.10;99.90
28177;DHT22;15461;41.652;9.378;2023-08-06T04:33:29;22.10;99.90
28177;DHT22;15461;41.652;9.378;2023-08-06T04:35:57;22.10;99.90
28177;DHT22;15461;41.652;9.378;2023-08-06T04:38:25;22.10;99.90
28177;DHT22;15461;41.652;9.378;2023-08-06T04:40:52;22.10;99.90
28177;DHT22;15461;41.652;9.378;2023-08-06T04:43:19;22.10;99.90
28177;DHT22;15461;41.652;9.378;2023-08-06T04:45:49;22.00;99.90
28177;DHT22;15461;41.652;9.378;2023-08-06T04:48:15;22.00;99.90
28177;DHT22;15461;41.652;9.378;2023-08-06T04:50:45;22.00;99.90
28177;DHT22;15461;41.652;9.378;2023-08-06T04:53:11;22.00;99.90
28177;DHT22;15461;41.652;9.378;2023-08-06T04:55:37;22.00;99.90
28177;DHT22;15461;41.652;9.378;2023-08-06T04:58:03;22.00;99.90
28177;DHT22;15461;41.652;9.378;2023-08-06T05:00:29;21.90;99.90
28177;DHT22;15461;41.652;9.378;2023-08-06T05:02:54;21.90;99.90
28177;DHT22;15461;41.652;9.378;2023-08-06T05:05:20;21.90;99.90
28177;DHT22;15461;41.652;9.378;2023-08-06T05:07:49;22.00;99.90
28177;DHT22;15461;41.652;9.378;2023-08-06T05:10:15;22.00;99.90
28177;DHT22;15461;41.652;9.378;2023-08-06T05:12:41;22.00;99.90
28177;DHT22;15461;41.652;9.378;2023-08-06T05:15:07;22.00;99.90
28177;DHT22;15461;41.652;9.378;2023-08-06T05:17:33;22.00;99.90
28177;DHT22;15461;41.652;9.378;2023-08-06T05:19:59;22.00;99.90
28177;DHT22;15461;41.652;9.378;2023-08-06T05:22:25;22.00;99.90
28177;DHT22;15461;41.652;9.378;2023-08-06T05:24:51;22.00;99.90
28177;DHT22;15461;41.652;9.378;2023-08-06T05:27:17;22.00;99.90
28177;DHT22;15461;41.652;9.378;2023-08-06T05:29:45;22.00;99.90
28177;DHT22;15461;41.652;9.378;2023-08-06T05:32:11;22.00;99.90
28177;DHT22;15461;41.652;9.378;2023-08-06T05:34:37;22.10;99.90
28177;DHT22;15461;41.652;9.378;2023-08-06T05:37:03;22.10;99.90
28177;DHT22;15461;41.652;9.378;2023-08-06T05:39:29;22.10;99.90
28177;DHT22;15461;41.652;9.378;2023-08-06T05:41:55;22.10;99.90
28177;DHT22;15461;41.652;9.378;2023-08-06T05:44:21;22.20;99.90
28177;DHT22;15461;41.652;9.378;2023-08-06T05:46:49;22.20;99.90
28177;DHT22;15461;41.652;9.378;2023-08-06T05:49:15;22.20;99.90
28177;DHT22;15461;41.652;9.378;2023-08-06T05:51:41;22.30;99.90
28177;DHT22;15461;41.652;9.378;2023-08-06T05:54:07;22.30;99.90
28177;DHT22;15461;41.652;9.378;2023-08-06T05:56:33;22.40;99.90
28177;DHT22;15461;41.652;9.378;2023-08-06T05:58:59;22.40;99.90
28177;DHT22;15461;41.652;9.378;2023-08-06T06:01:24;22.50;99.90
28177;DHT22;15461;41.652;9.378;2023-08-06T06:03:51;22.50;99.90
28177;DHT22;15461;41.652;9.378;2023-08-06T06:06:17;22.50;99.90
28177;DHT22;15461;41.652;9.378;2023-08-06T06:08:44;22.50;99.90
28177;DHT22;15461;41.652;9.378;2023-08-06T06:11:10;22.60;99.90
28177;DHT22;15461;41.652;9.378;2023-08-06T06:13:36;22.60;99.90
28177;DHT22;15461;41.652;9.378;2023-08-06T06:16:02;22.70;99.90
28177;DHT22;15461;41.652;9.378;2023-08-06T06:18:27;22.70;99.90
28177;DHT22;15461;41.652;9.378;2023-08-06T06:20:53;22.80;99.90
28177;DHT22;15461;41.652;9.378;2023-08-06T06:23:19;22.90;99.90
28177;DHT22;15461;41.652;9.378;2023-08-06T06:25:49;22.90;99.90
28177;DHT22;15461;41.652;9.378;2023-08-06T06:28:17;23.00;99.90
28177;DHT22;15461;41.652;9.378;2023-08-06T06:30:43;23.00;99.90
28177;DHT22;15461;41.652;9.378;2023-08-06T06:33:09;23.20;99.90
28177;DHT22;15461;41.652;9.378;2023-08-06T06:35:35;23.20;99.90
28177;DHT22;15461;41.652;9.378;2023-08-06T06:38:01;23.20;99.90
28177;DHT22;15461;41.652;9.378;2023-08-06T06:40:28;23.30;99.90
28177;DHT22;15461;41.652;9.378;2023-08-06T06:42:53;23.40;99.90
28177;DHT22;15461;41.652;9.378;2023-08-06T06:45:19;23.50;99.90
28177;DHT22;15461;41.652;9.378;2023-08-06T06:47:45;23.50;99.90
28177;DHT22;15461;41.652;9.378;2023-08-06T06:50:11;23.60;99.90
28177;DHT22;15461;41.652;9.378;2023-08-06T06:52:37;23.60;99.90
28177;DHT22;15461;41.652;9.378;2023-08-06T06:55:03;23.70;99.90
28177;DHT22;15461;41.652;9.378;2023-08-06T06:57:29;23.90;99.90
28177;DHT22;15461;41.652;9.378;2023-08-06T06:59:55;24.00;99.90
28177;DHT22;15461;41.652;9.378;2023-08-06T07:02:21;24.10;99.90
28177;DHT22;15461;41.652;9.378;2023-08-06T07:04:47;24.10;99.90
28177;DHT22;15461;41.652;9.378;2023-08-06T07:07:12;24.10;99.90
28177;DHT22;15461;41.652;9.378;2023-08-06T07:09:38;24.20;99.90
28177;DHT22;15461;41.652;9.378;2023-08-06T07:12:04;24.20;99.90
28177;DHT22;15461;41.652;9.378;2023-08-06T07:14:30;24.30;99.90
28177;DHT22;15461;41.652;9.378;2023-08-06T07:16:56;24.40;99.90
28177;DHT22;15461;41.652;9.378;2023-08-06T07:19:23;24.40;99.90
28177;DHT22;15461;41.652;9.378;2023-08-06T07:21:48;24.40;99.90
28177;DHT22;15461;41.652;9.378;2023-08-06T07:24:14;24.50;99.90
28177;DHT22;15461;41.652;9.378;2023-08-06T07:26:40;24.60;99.90
28177;DHT22;15461;41.652;9.378;2023-08-06T07:29:06;24.70;99.90
28177;DHT22;15461;41.652;9.378;2023-08-06T07:31:31;24.70;99.90
28177;DHT22;15461;41.652;9.378;2023-08-06T07:33:57;24.80;99.90
28177;DHT22;15461;41.652;9.378;2023-08-06T07:36:23;24.90;99.90
28177;DHT22;15461;41.652;9.378;2023-08-06T07:38:49;24.90;99.90
28177;DHT22;15461;41.652;9.378;2023-08-06T07:41:22;25.00;99.90
28177;DHT22;15461;41.652;9.378;2023-08-06T07:43:48;25.00;99.90
28177;DHT22;15461;41.652;9.378;2023-08-06T07:46:14;25.10;99.90
28177;DHT22;15461;41.652;9.378;2023-08-06T07:48:39;25.20;99.90
28177;DHT22;15461;41.652;9.378;2023-08-06T07:51:05;25.20;99.90
28177;DHT22;15461;41.652;9.378;2023-08-06T07:53:31;25.30;99.90
28177;DHT22;15461;41.652;9.378;2023-08-06T07:55:57;25.40;99.90
28177;DHT22;15461;41.652;9.378;2023-08-06T07:58:24;25.40;99.90
28177;DHT22;15461;41.652;9.378;2023-08-06T08:00:50;25.50;99.90
28177;DHT22;15461;41.652;9.378;2023-08-06T08:03:16;25.50;99.90
28177;DHT22;15461;41.652;9.378;2023-08-06T08:05:43;25.50;99.90
28177;DHT22;15461;41.652;9.378;2023-08-06T08:08:09;25.60;99.90
28177;DHT22;15461;41.652;9.378;2023-08-06T08:10:35;25.80;99.90
28177;DHT22;15461;41.652;9.378;2023-08-06T08:13:05;25.80;99.90
28177;DHT22;15461;41.652;9.378;2023-08-06T08:15:32;25.90;99.90
28177;DHT22;15461;41.652;9.378;2023-08-06T08:17:58;26.10;99.90
28177;DHT22;15461;41.652;9.378;2023-08-06T08:20:24;26.10;99.90
28177;DHT22;15461;41.652;9.378;2023-08-06T08:22:50;26.10;99.90
28177;DHT22;15461;41.652;9.378;2023-08-06T08:25:16;26.20;99.90
28177;DHT22;15461;41.652;9.378;2023-08-06T08:27:42;26.30;99.90
28177;DHT22;15461;41.652;9.378;2023-08-06T08:30:08;26.30;99.90
28177;DHT22;15461;41.652;9.378;2023-08-06T08:32:34;26.50;99.90
28177;DHT22;15461;41.652;9.378;2023-08-06T08:35:00;26.50;99.90
28177;DHT22;15461;41.652;9.378;2023-08-06T08:37:25;26.60;99.90
28177;DHT22;15461;41.652;9.378;2023-08-06T08:39:51;26.70;99.90
28177;DHT22;15461;41.652;9.378;2023-08-06T08:42:17;26.80;99.90
28177;DHT22;15461;41.652;9.378;2023-08-06T08:44:44;26.60;99.90
28177;DHT22;15461;41.652;9.378;2023-08-06T08:47:11;26.50;99.90
28177;DHT22;15461;41.652;9.378;2023-08-06T08:49:37;26.60;99.90
28177;DHT22;15461;41.652;9.378;2023-08-06T08:52:04;26.70;99.90
28177;DHT22;15461;41.652;9.378;2023-08-06T08:54:38;26.80;99.90
28177;DHT22;15461;41.652;9.378;2023-08-06T08:57:04;26.90;99.90
28177;DHT22;15461;41.652;9.378;2023-08-06T08:59:33;26.90;99.90
28177;DHT22;15461;41.652;9.378;2023-08-06T09:02:00;26.90;99.90
28177;DHT22;15461;41.652;9.378;2023-08-06T09:04:28;27.00;99.90
28177;DHT22;15461;41.652;9.378;2023-08-06T09:06:58;27.00;99.90
28177;DHT22;15461;41.652;9.378;2023-08-06T09:09:31;27.10;99.90
28177;DHT22;15461;41.652;9.378;2023-08-06T09:12:01;27.20;99.10
28177;DHT22;15461;41.652;9.378;2023-08-06T09:14:30;27.20;98.50
28177;DHT22;15461;41.652;9.378;2023-08-06T09:16:56;27.20;98.10
28177;DHT22;15461;41.652;9.378;2023-08-06T09:19:23;27.20;98.60
28177;DHT22;15461;41.652;9.378;2023-08-06T09:21:51;27.20;98.60
28177;DHT22;15461;41.652;9.378;2023-08-06T09:24:17;27.20;97.50
28177;DHT22;15461;41.652;9.378;2023-08-06T09:26:46;27.40;98.40
28177;DHT22;15461;41.652;9.378;2023-08-06T09:29:12;27.60;97.50
28177;DHT22;15461;41.652;9.378;2023-08-06T09:31:47;27.70;96.80
28177;DHT22;15461;41.652;9.378;2023-08-06T09:34:18;27.70;96.50
28177;DHT22;15461;41.652;9.378;2023-08-06T09:36:51;27.80;96.90
28177;DHT22;15461;41.652;9.378;2023-08-06T09:39:19;27.90;96.50
28177;DHT22;15461;41.652;9.378;2023-08-06T09:41:46;27.90;96.70
28177;DHT22;15461;41.652;9.378;2023-08-06T09:44:19;27.90;96.30
28177;DHT22;15461;41.652;9.378;2023-08-06T09:46:57;28.10;95.70
28177;DHT22;15461;41.652;9.378;2023-08-06T09:49:26;28.20;96.40
28177;DHT22;15461;41.652;9.378;2023-08-06T09:51:53;28.20;96.20
28177;DHT22;15461;41.652;9.378;2023-08-06T09:54:24;28.10;96.00
28177;DHT22;15461;41.652;9.378;2023-08-06T09:56:53;28.10;95.00
28177;DHT22;15461;41.652;9.378;2023-08-06T09:59:19;28.30;95.60
28177;DHT22;15461;41.652;9.378;2023-08-06T10:01:46;28.40;95.40
28177;DHT22;15461;41.652;9.378;2023-08-06T10:04:14;28.50;96.30
28177;DHT22;15461;41.652;9.378;2023-08-06T10:06:43;28.50;95.30
28177;DHT22;15461;41.652;9.378;2023-08-06T10:09:11;28.40;95.40
28177;DHT22;15461;41.652;9.378;2023-08-06T10:11:38;28.40;95.10
28177;DHT22;15461;41.652;9.378;2023-08-06T10:14:18;28.20;94.90
28177;DHT22;15461;41.652;9.378;2023-08-06T10:16:46;28.10;96.30
28177;DHT22;15461;41.652;9.378;2023-08-06T10:19:14;28.00;95.50
28177;DHT22;15461;41.652;9.378;2023-08-06T10:21:41;28.00;95.80
28177;DHT22;15461;41.652;9.378;2023-08-06T10:24:07;28.00;95.40
28177;DHT22;15461;41.652;9.378;2023-08-06T10:26:37;28.10;96.10
28177;DHT22;15461;41.652;9.378;2023-08-06T10:29:37;28.20;96.00
28177;DHT22;15461;41.652;9.378;2023-08-06T10:32:03;28.30;95.40
28177;DHT22;15461;41.652;9.378;2023-08-06T10:34:56;28.30;95.30
28177;DHT22;15461;41.652;9.378;2023-08-06T10:37:22;28.20;95.10
28177;DHT22;15461;41.652;9.378;2023-08-06T10:39:51;28.20;95.00
28177;DHT22;15461;41.652;9.378;2023-08-06T10:42:30;28.30;94.80
28177;DHT22;15461;41.652;9.378;2023-08-06T10:45:16;28.30;95.20
28177;DHT22;15461;41.652;9.378;2023-08-06T10:47:43;28.50;95.10
28177;DHT22;15461;41.652;9.378;2023-08-06T10:50:12;28.60;93.20
28177;DHT22;15461;41.652;9.378;2023-08-06T10:52:47;28.70;93.60
28177;DHT22;15461;41.652;9.378;2023-08-06T10:55:14;28.60;94.20
28177;DHT22;15461;41.652;9.378;2023-08-06T10:57:40;28.60;94.00
28177;DHT22;15461;41.652;9.378;2023-08-06T11:00:07;28.60;93.80
28177;DHT22;15461;41.652;9.378;2023-08-06T11:02:34;28.50;93.10
28177;DHT22;15461;41.652;9.378;2023-08-06T11:05:05;28.60;93.70
28177;DHT22;15461;41.652;9.378;2023-08-06T11:07:32;28.60;94.10
28177;DHT22;15461;41.652;9.378;2023-08-06T11:10:05;28.60;93.70
28177;DHT22;15461;41.652;9.378;2023-08-06T11:12:32;28.60;93.60
28177;DHT22;15461;41.652;9.378;2023-08-06T11:14:59;28.60;93.30
28177;DHT22;15461;41.652;9.378;2023-08-06T11:17:27;28.80;93.70
28177;DHT22;15461;41.652;9.378;2023-08-06T11:19:53;28.70;92.60
28177;DHT22;15461;41.652;9.378;2023-08-06T11:22:21;28.70;93.60
28177;DHT22;15461;41.652;9.378;2023-08-06T11:24:48;28.70;93.50
28177;DHT22;15461;41.652;9.378;2023-08-06T11:27:14;28.80;91.60
28177;DHT22;15461;41.652;9.378;2023-08-06T11:29:41;28.80;92.20
28177;DHT22;15461;41.652;9.378;2023-08-06T11:32:08;28.70;92.50
28177;DHT22;15461;41.652;9.378;2023-08-06T11:34:34;28.70;91.90
28177;DHT22;15461;41.652;9.378;2023-08-06T11:37:02;28.80;91.30
28177;DHT22;15461;41.652;9.378;2023-08-06T11:39:28;28.80;87.60
28177;DHT22;15461;41.652;9.378;2023-08-06T11:41:54;28.90;89.30
28177;DHT22;15461;41.652;9.378;2023-08-06T11:44:21;29.00;90.90
28177;DHT22;15461;41.652;9.378;2023-08-06T11:46:51;29.10;88.70
28177;DHT22;15461;41.652;9.378;2023-08-06T11:49:43;29.10;88.10
28177;DHT22;15461;41.652;9.378;2023-08-06T11:52:23;29.20;89.30
28177;DHT22;15461;41.652;9.378;2023-08-06T11:55:06;29.30;90.70
28177;DHT22;15461;41.652;9.378;2023-08-06T11:57:34;29.50;88.80
28177;DHT22;15461;41.652;9.378;2023-08-06T12:00:10;29.50;87.80
28177;DHT22;15461;41.652;9.378;2023-08-06T12:02:44;29.50;87.90
28177;DHT22;15461;41.652;9.378;2023-08-06T12:05:17;29.50;86.50
28177;DHT22;15461;41.652;9.378;2023-08-06T12:07:45;29.50;83.10
28177;DHT22;15461;41.652;9.378;2023-08-06T12:10:12;29.50;84.80
28177;DHT22;15461;41.652;9.378;2023-08-06T12:12:38;29.50;79.50
28177;DHT22;15461;41.652;9.378;2023-08-06T12:15:05;29.30;85.60
28177;DHT22;15461;41.652;9.378;2023-08-06T12:17:32;29.20;88.50
28177;DHT22;15461;41.652;9.378;2023-08-06T12:19:58;29.10;88.70
28177;DHT22;15461;41.652;9.378;2023-08-06T12:22:24;29.10;89.30
28177;DHT22;15461;41.652;9.378;2023-08-06T12:24:49;29.10;89.00
28177;DHT22;15461;41.652;9.378;2023-08-06T12:27:15;29.00;87.90
28177;DHT22;15461;41.652;9.378;2023-08-06T12:29:47;29.00;88.90
28177;DHT22;15461;41.652;9.378;2023-08-06T12:32:13;29.00;89.90
28177;DHT22;15461;41.652;9.378;2023-08-06T12:34:40;28.90;87.40
28177;DHT22;15461;41.652;9.378;2023-08-06T12:37:07;28.90;85.80
28177;DHT22;15461;41.652;9.378;2023-08-06T12:39:34;29.00;89.90
28177;DHT22;15461;41.652;9.378;2023-08-06T12:42:04;29.00;88.80
28177;DHT22;15461;41.652;9.378;2023-08-06T12:44:31;28.90;89.60
28177;DHT22;15461;41.652;9.378;2023-08-06T12:46:57;28.90;87.90
28177;DHT22;15461;41.652;9.378;2023-08-06T12:49:24;29.00;85.70
28177;DHT22;15461;41.652;9.378;2023-08-06T12:51:50;29.10;86.50
28177;DHT22;15461;41.652;9.378;2023-08-06T12:54:17;29.00;88.30
28177;DHT22;15461;41.652;9.378;2023-08-06T12:56:44;28.90;87.80
28177;DHT22;15461;41.652;9.378;2023-08-06T12:59:10;29.00;87.70
28177;DHT22;15461;41.652;9.378;2023-08-06T13:01:37;29.00;86.00
28177;DHT22;15461;41.652;9.378;2023-08-06T13:04:03;28.90;88.80
28177;DHT22;15461;41.652;9.378;2023-08-06T13:06:29;28.80;88.80
28177;DHT22;15461;41.652;9.378;2023-08-06T13:08:57;29.00;88.50
28177;DHT22;15461;41.652;9.378;2023-08-06T13:11:23;28.90;89.30
28177;DHT22;15461;41.652;9.378;2023-08-06T13:13:48;28.90;88.10
28177;DHT22;15461;41.652;9.378;2023-08-06T13:16:14;28.90;85.60
28177;DHT22;15461;41.652;9.378;2023-08-06T13:18:40;28.90;86.30
28177;DHT22;15461;41.652;9.378;2023-08-06T13:21:06;28.80;86.90
28177;DHT22;15461;41.652;9.378;2023-08-06T13:23:32;28.80;83.60
28177;DHT22;15461;41.652;9.378;2023-08-06T13:25:58;28.80;88.00
28177;DHT22;15461;41.652;9.378;2023-08-06T13:28:24;28.80;89.30
28177;DHT22;15461;41.652;9.378;2023-08-06T13:30:50;28.80;90.00
28177;DHT22;15461;41.652;9.378;2023-08-06T13:33:16;28.70;86.00
28177;DHT22;15461;41.652;9.378;2023-08-06T13:35:42;28.70;87.90
28177;DHT22;15461;41.652;9.378;2023-08-06T13:38:07;28.60;88.70
28177;DHT22;15461;41.652;9.378;2023-08-06T13:40:34;28.60;89.70
28177;DHT22;15461;41.652;9.378;2023-08-06T13:43:00;28.60;88.10
28177;DHT22;15461;41.652;9.378;2023-08-06T13:45:26;28.70;87.80
28177;DHT22;15461;41.652;9.378;2023-08-06T13:47:52;28.60;88.20
28177;DHT22;15461;41.652;9.378;2023-08-06T13:50:18;28.50;85.10
28177;DHT22;15461;41.652;9.378;2023-08-06T13:52:45;28.60;83.00
28177;DHT22;15461;41.652;9.378;2023-08-06T13:55:11;28.30;87.10
28177;DHT22;15461;41.652;9.378;2023-08-06T13:57:39;28.20;87.30
28177;DHT22;15461;41.652;9.378;2023-08-06T14:00:05;28.30;82.30
28177;DHT22;15461;41.652;9.378;2023-08-06T14:02:38;28.40;86.70
28177;DHT22;15461;41.652;9.378;2023-08-06T14:05:04;28.30;88.40
28177;DHT22;15461;41.652;9.378;2023-08-06T14:07:30;28.30;86.60
28177;DHT22;15461;41.652;9.378;2023-08-06T14:09:55;28.20;89.80
28177;DHT22;15461;41.652;9.378;2023-08-06T14:12:23;28.20;86.80
28177;DHT22;15461;41.652;9.378;2023-08-06T14:14:49;28.20;89.20
28177;DHT22;15461;41.652;9.378;2023-08-06T14:17:14;28.30;89.50
28177;DHT22;15461;41.652;9.378;2023-08-06T14:19:41;28.20;90.20
28177;DHT22;15461;41.652;9.378;2023-08-06T14:22:07;28.10;89.60
28177;DHT22;15461;41.652;9.378;2023-08-06T14:24:32;27.90;90.30
28177;DHT22;15461;41.652;9.378;2023-08-06T14:26:58;27.90;90.80
28177;DHT22;15461;41.652;9.378;2023-08-06T14:29:24;27.90;91.00
28177;DHT22;15461;41.652;9.378;2023-08-06T14:31:51;27.90;90.90
28177;DHT22;15461;41.652;9.378;2023-08-06T14:34:17;27.80;90.30
28177;DHT22;15461;41.652;9.378;2023-08-06T14:36:42;27.80;91.00
28177;DHT22;15461;41.652;9.378;2023-08-06T14:39:08;27.80;91.00
28177;DHT22;15461;41.652;9.378;2023-08-06T14:41:34;27.90;91.10
28177;DHT22;15461;41.652;9.378;2023-08-06T14:44:00;27.90;90.80
28177;DHT22;15461;41.652;9.378;2023-08-06T14:46:26;27.80;90.90
28177;DHT22;15461;41.652;9.378;2023-08-06T14:48:51;27.70;91.50
28177;DHT22;15461;41.652;9.378;2023-08-06T14:51:17;27.70;91.90
28177;DHT22;15461;41.652;9.378;2023-08-06T14:53:46;27.60;91.20
28177;DHT22;15461;41.652;9.378;2023-08-06T14:56:11;27.70;91.50
28177;DHT22;15461;41.652;9.378;2023-08-06T14:58:37;27.70;92.00
28177;DHT22;15461;41.652;9.378;2023-08-06T15:01:03;27.70;91.20
28177;DHT22;15461;41.652;9.378;2023-08-06T15:03:29;27.70;90.40
28177;DHT22;15461;41.652;9.378;2023-08-06T15:05:56;27.60;91.40
28177;DHT22;15461;41.652;9.378;2023-08-06T15:08:22;27.50;92.00
28177;DHT22;15461;41.652;9.378;2023-08-06T15:10:54;27.50;91.70
28177;DHT22;15461;41.652;9.378;2023-08-06T15:13:20;27.40;91.60
28177;DHT22;15461;41.652;9.378;2023-08-06T15:15:49;27.50;91.70
28177;DHT22;15461;41.652;9.378;2023-08-06T15:18:15;27.40;92.00
28177;DHT22;15461;41.652;9.378;2023-08-06T15:20:41;27.30;91.70
28177;DHT22;15461;41.652;9.378;2023-08-06T15:23:07;27.30;91.80
28177;DHT22;15461;41.652;9.378;2023-08-06T15:25:32;27.20;92.00
28177;DHT22;15461;41.652;9.378;2023-08-06T15:27:58;27.10;91.80
28177;DHT22;15461;41.652;9.378;2023-08-06T15:30:24;27.00;92.20
28177;DHT22;15461;41.652;9.378;2023-08-06T15:32:50;26.90;92.50